Huvudsida
METAR-TAF:

METAR-TAF

Flygplatser :

Hongkongs internationella flygplats

Hongkong, Kina

latitud: 22-19N, longitud: 113-55E, höjd: 9 m

Aktuellt väderrapport

Denna rapport gjordes för 15 minuter sedan, klockan 04:30 UTC
Vind 17 kt från ost
Temperatur 26°C
Fuktighet 65%
Tryck 1015 hPa
Sikt 10 km eller mer
Få moln på en höjd av 1500 ft
Spridda moln på en höjd av 2800 ft

METAR: VHHH 150430Z 09017KT 9999 FEW015 SCT028 26/19 Q1015 NOSIG

Tid: 12:45 (04:45 UTC)

Väderprognos

Denna rapport gjordes för 5 timmar och 45 minuter sedan, klockan 23:00 UTC
Prognos gäller från 15 kl. 00 UTC till 16 kl. 06 UTC
Vind 15 kt från ost
Sikt 10 km eller mer
Få moln på en höjd av 2000 ft
Spridda moln på en höjd av 3500 ft

TAF: VHHH 142300Z 1500/1606 09015KT 9999 FEW020 SCT035 TX26/1506Z TX26/1606Z TN23/1522Z

Aktuella väderrapporter och prognoser från 4000 flygplatser (METAR- och TAF-rapporter).

De tillgängliga stationerna syns som gula och röda prickar på kartan.

För musen över prickarna för att se namnen på stationerna.

Klicka sedan för att få väderrapporter och prognoser.

För att ändra kartan: Klicka på de gröna knapparna med ett svart kors på för att zooma in; den gröna knappen med ett streck på för att zooma ut; eller på de gröna pilarna för angränsande kartor.


METAR-TAF: